createdAt,value
2022-11-22T00:00:25.579Z,96246.75
2022-11-22T00:02:52.477Z,96250.63
2022-11-22T00:05:20.073Z,96244.59
2022-11-22T00:07:46.692Z,96240.22
2022-11-22T00:10:14.629Z,96242.34
2022-11-22T00:12:41.924Z,96233.53
2022-11-22T00:15:09.692Z,96233.69
2022-11-22T00:17:37.146Z,96233.44
2022-11-22T00:20:05.944Z,96238.19
2022-11-22T00:22:32.916Z,96244.13
2022-11-22T00:24:59.814Z,96236.56
2022-11-22T00:27:26.482Z,96218.25
2022-11-22T00:29:52.969Z,96211.94
2022-11-22T00:32:19.412Z,96212.06
2022-11-22T00:34:45.963Z,96205.88
2022-11-22T00:37:12.478Z,96203.16
2022-11-22T00:39:39.020Z,96189.03
2022-11-22T00:42:05.627Z,96204.56
2022-11-22T00:44:32.144Z,96199.78
2022-11-22T00:46:58.639Z,96200.03
2022-11-22T00:49:25.070Z,96195.50
2022-11-22T00:51:51.629Z,96202.41
2022-11-22T00:54:18.038Z,96200.19
2022-11-22T00:56:44.516Z,96196.91
2022-11-22T00:59:10.986Z,96195.09
2022-11-22T01:01:37.521Z,96196.34
2022-11-22T01:04:04.373Z,96200.91
2022-11-22T01:06:31.203Z,96190.84
2022-11-22T01:08:57.994Z,96195.66
2022-11-22T01:11:24.480Z,96199.38
2022-11-22T01:13:50.975Z,96197.47
2022-11-22T01:16:17.592Z,96202.94
2022-11-22T01:18:44.340Z,96204.34
2022-11-22T01:21:10.814Z,96203.38
2022-11-22T01:23:38.206Z,96197.72
2022-11-22T01:26:11.456Z,96204.34
2022-11-22T01:28:37.903Z,96208.47
2022-11-22T01:31:04.920Z,96213.69
2022-11-22T01:33:31.420Z,96212.31
2022-11-22T01:35:58.395Z,96220.03
2022-11-22T01:38:25.349Z,96217.81
2022-11-22T01:40:53.189Z,96207.34
2022-11-22T01:43:23.516Z,96204.63
2022-11-22T01:46:17.189Z,96219.75
2022-11-22T01:48:55.381Z,96220.88
2022-11-22T01:51:33.467Z,96212.19
2022-11-22T01:54:07.973Z,96221.13
2022-11-22T01:56:37.036Z,96223.06
2022-11-22T01:59:12.072Z,96228.31
2022-11-22T02:01:38.556Z,96233.13
2022-11-22T02:04:08.269Z,96229.53
2022-11-22T02:06:51.357Z,96231.63
2022-11-22T02:09:18.441Z,96236.44
2022-11-22T02:11:54.160Z,96234.38
2022-11-22T02:14:26.740Z,96240.81
2022-11-22T02:16:53.707Z,96250.63
2022-11-22T02:19:46.306Z,96254.19
2022-11-22T02:22:36.699Z,96258.59
2022-11-22T02:25:43.754Z,96256.53
2022-11-22T02:28:13.670Z,96255.97
2022-11-22T02:30:41.447Z,96270.72
2022-11-22T02:33:08.496Z,96260.25
2022-11-22T02:35:35.496Z,96271.28
2022-11-22T02:38:08.701Z,96263.97
2022-11-22T02:40:45.252Z,96272.53
2022-11-22T02:43:18.717Z,96268.66
2022-11-22T02:45:45.226Z,96274.59
2022-11-22T02:48:15.633Z,96274.72
2022-11-22T02:50:43.277Z,96270.03
2022-11-22T02:53:11.778Z,96263.31
2022-11-22T02:55:39.064Z,96256.69
2022-11-22T02:58:06.007Z,96250.34
2022-11-22T03:00:34.886Z,96255.03
2022-11-22T03:03:01.872Z,96245.78
2022-11-22T03:05:28.548Z,96246.22
2022-11-22T03:07:55.114Z,96249.22
2022-11-22T03:10:21.596Z,96251.16
2022-11-22T03:12:48.098Z,96256.66
2022-11-22T03:15:14.634Z,96258.84
2022-11-22T03:17:41.129Z,96262.41
2022-11-22T03:20:08.417Z,96264.09
2022-11-22T03:22:35.334Z,96264.25
2022-11-22T03:25:01.830Z,96267.69
2022-11-22T03:27:28.340Z,96279.25
2022-11-22T03:29:54.822Z,96278.84
2022-11-22T03:32:21.288Z,96287.53
2022-11-22T03:34:47.758Z,96293.28
2022-11-22T03:37:14.219Z,96297.16
2022-11-22T03:39:40.704Z,96303.63
2022-11-22T03:42:07.271Z,96306.25
2022-11-22T03:44:33.749Z,96307.34
2022-11-22T03:47:00.180Z,96311.47
2022-11-22T03:49:26.659Z,96315.75
2022-11-22T03:51:53.161Z,96322.88
2022-11-22T03:54:19.582Z,96315.59
2022-11-22T03:56:46.047Z,96313.63
2022-11-22T03:59:12.747Z,96317.44
2022-11-22T04:01:39.281Z,96314.66
2022-11-22T04:04:05.864Z,96320.97
2022-11-22T04:06:32.297Z,96329.78
2022-11-22T04:08:58.826Z,96332.00
2022-11-22T04:11:25.339Z,96330.09
2022-11-22T04:14:10.659Z,96328.03
2022-11-22T04:16:37.165Z,96321.81
2022-11-22T04:19:03.687Z,96328.13
2022-11-22T04:21:36.296Z,96321.63
2022-11-22T04:24:24.279Z,96332.78
2022-11-22T04:26:51.985Z,96333.59
2022-11-22T04:29:20.149Z,96340.00
2022-11-22T04:32:07.491Z,96336.38
2022-11-22T04:34:34.751Z,96344.16
2022-11-22T04:37:02.256Z,96334.53
2022-11-22T04:39:29.144Z,96332.19
2022-11-22T04:42:15.717Z,96335.63
2022-11-22T04:44:44.048Z,96325.38
2022-11-22T04:47:35.188Z,96329.22
2022-11-22T04:50:03.651Z,96331.78
2022-11-22T04:52:49.004Z,96336.44
2022-11-22T04:55:15.589Z,96335.53
2022-11-22T04:57:42.134Z,96336.00
2022-11-22T05:00:09.404Z,96331.31
2022-11-22T05:02:35.872Z,96334.16
2022-11-22T05:05:02.368Z,96339.38
2022-11-22T05:07:28.818Z,96340.09
2022-11-22T05:09:55.363Z,96337.75
2022-11-22T05:12:21.845Z,96332.72
2022-11-22T05:14:48.313Z,96339.00
2022-11-22T05:17:14.837Z,96338.16
2022-11-22T05:19:44.960Z,96333.31
2022-11-22T05:22:14.283Z,96329.78
2022-11-22T05:24:40.754Z,96342.84
2022-11-22T05:27:07.313Z,96351.25
2022-11-22T05:29:33.844Z,96356.38
2022-11-22T05:32:00.513Z,96362.56
2022-11-22T05:34:26.947Z,96357.50
2022-11-22T05:36:53.617Z,96358.09
2022-11-22T05:39:20.105Z,96352.53
2022-11-22T05:41:55.763Z,96359.53
2022-11-22T05:44:23.924Z,96360.84
2022-11-22T05:46:50.393Z,96365.34
2022-11-22T05:49:16.835Z,96372.94
2022-11-22T05:51:43.421Z,96378.38
2022-11-22T05:54:10.034Z,96378.53
2022-11-22T05:56:36.539Z,96372.00
2022-11-22T05:59:03.115Z,96371.66
2022-11-22T06:01:29.644Z,96377.56
2022-11-22T06:03:56.105Z,96392.97
2022-11-22T06:06:22.871Z,96394.16
2022-11-22T06:08:51.075Z,96400.69
2022-11-22T06:11:20.065Z,96409.06
2022-11-22T06:13:49.684Z,96410.94
2022-11-22T06:16:16.827Z,96422.09
2022-11-22T06:18:43.771Z,96429.41
2022-11-22T06:21:20.415Z,96436.53
2022-11-22T06:23:46.827Z,96445.59
2022-11-22T06:26:18.017Z,96444.28
2022-11-22T06:28:46.992Z,96446.78
2022-11-22T06:31:16.151Z,96449.97
2022-11-22T06:33:43.858Z,96450.88
2022-11-22T06:36:20.286Z,96454.31
2022-11-22T06:38:47.040Z,96453.38
2022-11-22T06:41:17.637Z,96454.44
2022-11-22T06:43:49.276Z,96460.03
2022-11-22T06:46:19.713Z,96463.25
2022-11-22T06:48:46.882Z,96462.59
2022-11-22T06:51:24.110Z,96466.53
2022-11-22T06:53:51.897Z,96464.78
2022-11-22T06:56:25.466Z,96468.09
2022-11-22T06:58:54.222Z,96466.19
2022-11-22T07:01:26.882Z,96470.34
2022-11-22T07:03:58.056Z,96475.91
2022-11-22T07:06:31.600Z,96478.28
2022-11-22T07:09:00.055Z,96479.97
2022-11-22T07:11:30.481Z,96474.72
2022-11-22T07:14:06.612Z,96483.88
2022-11-22T07:16:36.352Z,96485.38
2022-11-22T07:19:03.163Z,96488.50
2022-11-22T07:21:29.773Z,96495.59
2022-11-22T07:23:56.572Z,96494.53
2022-11-22T07:26:25.575Z,96498.66
2022-11-22T07:28:52.052Z,96504.34
2022-11-22T07:31:19.587Z,96498.44
2022-11-22T07:33:46.291Z,96503.66
2022-11-22T07:36:20.356Z,96500.31
2022-11-22T07:38:48.472Z,96508.66
2022-11-22T07:41:16.272Z,96503.88
2022-11-22T07:43:43.329Z,96508.88
2022-11-22T07:46:21.814Z,96511.47
2022-11-22T07:48:49.759Z,96509.47
2022-11-22T07:51:17.030Z,96509.13
2022-11-22T07:53:43.509Z,96505.31
2022-11-22T07:56:10.022Z,96506.75
2022-11-22T07:58:37.552Z,96508.16
2022-11-22T08:01:06.765Z,96499.53
2022-11-22T08:03:34.054Z,96504.13
2022-11-22T08:06:01.653Z,96503.19
2022-11-22T08:08:29.073Z,96499.38
2022-11-22T08:10:55.819Z,96510.50
2022-11-22T08:13:23.225Z,96492.72
2022-11-22T08:15:51.512Z,96490.34
2022-11-22T08:18:21.468Z,96489.91
2022-11-22T08:20:47.990Z,96502.44
2022-11-22T08:23:14.465Z,96500.44
2022-11-22T08:25:40.910Z,96502.69
2022-11-22T08:28:07.412Z,96496.03
2022-11-22T08:30:33.864Z,96501.59
2022-11-22T08:33:00.373Z,96507.28
2022-11-22T08:35:26.913Z,96509.31
2022-11-22T08:37:57.759Z,96513.81
2022-11-22T08:40:24.526Z,96514.06
2022-11-22T08:42:55.137Z,96504.00
2022-11-22T08:45:21.654Z,96514.31
2022-11-22T08:47:48.958Z,96518.34
2022-11-22T08:50:17.620Z,96528.09
2022-11-22T08:52:44.375Z,96525.69
2022-11-22T08:55:10.882Z,96533.88
2022-11-22T08:57:37.492Z,96541.22
2022-11-22T09:00:06.575Z,96534.22
2022-11-22T09:02:33.063Z,96537.31
2022-11-22T09:04:59.497Z,96538.03
2022-11-22T09:10:12.680Z,96550.97
2022-11-22T09:12:43.431Z,96551.78
2022-11-22T09:15:10.663Z,96545.84
2022-11-22T09:17:37.220Z,96559.34
2022-11-22T09:20:04.813Z,96561.94
2022-11-22T09:22:31.977Z,96564.88
2022-11-22T09:24:58.445Z,96565.91
2022-11-22T09:27:24.876Z,96567.72
2022-11-22T09:29:54.209Z,96567.88
2022-11-22T09:32:20.702Z,96564.25
2022-11-22T09:34:47.124Z,96566.66
2022-11-22T09:37:17.157Z,96557.78
2022-11-22T09:39:48.586Z,96559.47
2022-11-22T09:42:51.433Z,96560.31
2022-11-22T09:45:49.730Z,96562.53
2022-11-22T09:48:33.175Z,96550.41
2022-11-22T09:51:12.176Z,96542.56
2022-11-22T09:53:52.983Z,96545.44
2022-11-22T09:56:25.257Z,96541.84
2022-11-22T09:59:21.298Z,96538.88
2022-11-22T10:02:17.008Z,96528.47
2022-11-22T10:04:55.628Z,96530.88
2022-11-22T10:07:56.718Z,96526.38
2022-11-22T10:10:35.248Z,96515.44
2022-11-22T10:13:16.914Z,96536.34
2022-11-22T10:16:14.334Z,96538.50
2022-11-22T10:18:55.473Z,96533.75
2022-11-22T10:21:22.052Z,96534.22
2022-11-22T10:23:48.553Z,96524.72
2022-11-22T10:26:49.896Z,96520.44
2022-11-22T10:29:28.730Z,96516.75
2022-11-22T10:32:09.762Z,96518.34
2022-11-22T10:35:18.356Z,96505.28
2022-11-22T10:37:58.170Z,96510.69
2022-11-22T10:40:58.427Z,96507.50
2022-11-22T10:43:54.456Z,96518.00
2022-11-22T10:46:40.394Z,96508.25
2022-11-22T10:49:35.532Z,96501.59
2022-11-22T10:52:35.680Z,96491.94
2022-11-22T10:55:22.172Z,96485.44
2022-11-22T10:58:22.570Z,96493.69
2022-11-22T11:01:38.453Z,96494.81
2022-11-22T11:04:09.588Z,96492.69
2022-11-22T11:07:11.147Z,96491.88
2022-11-22T11:12:58.776Z,96487.75
2022-11-22T11:15:37.989Z,96484.41
2022-11-22T11:18:32.543Z,96480.31
2022-11-22T11:20:59.053Z,96471.19
2022-11-22T11:23:25.584Z,96460.69
2022-11-22T11:25:52.509Z,96468.25
2022-11-22T11:28:30.013Z,96475.84
2022-11-22T11:31:09.364Z,96472.53
2022-11-22T11:33:39.182Z,96475.97
2022-11-22T11:36:21.032Z,96481.66
2022-11-22T11:38:52.862Z,96478.44
2022-11-22T11:41:34.460Z,96487.56
2022-11-22T11:44:06.137Z,96488.53
2022-11-22T11:46:41.342Z,96489.09
2022-11-22T11:49:24.017Z,96486.47
2022-11-22T11:52:19.151Z,96495.31
2022-11-22T11:54:49.229Z,96492.41
2022-11-22T11:57:25.160Z,96489.09
2022-11-22T11:59:54.499Z,96492.69
2022-11-22T12:02:40.973Z,96487.03
2022-11-22T12:05:28.400Z,96489.09
2022-11-22T12:07:55.608Z,96482.34
2022-11-22T12:10:56.547Z,96470.88
2022-11-22T12:13:57.789Z,96474.22
2022-11-22T12:16:36.523Z,96477.94
2022-11-22T12:19:50.569Z,96477.34
2022-11-22T12:22:49.388Z,96473.47
2022-11-22T12:25:47.756Z,96478.59
2022-11-22T12:28:20.421Z,96466.03
2022-11-22T12:30:55.348Z,96477.75
2022-11-22T12:33:41.442Z,96474.69
2022-11-22T12:36:42.072Z,96476.25
2022-11-22T12:39:17.303Z,96472.38
2022-11-22T12:41:49.990Z,96477.88
2022-11-22T12:44:21.036Z,96484.41
2022-11-22T12:46:59.277Z,96483.03
2022-11-22T12:49:52.532Z,96483.28
2022-11-22T12:52:52.932Z,96478.88
2022-11-22T12:55:34.969Z,96473.09
2022-11-22T12:58:49.421Z,96475.47
2022-11-22T13:01:28.647Z,96473.13
2022-11-22T13:04:11.815Z,96471.00
2022-11-22T13:06:56.353Z,96474.75
2022-11-22T13:09:31.676Z,96479.72
2022-11-22T13:12:25.302Z,96483.16
2022-11-22T13:14:55.426Z,96469.22
2022-11-22T13:17:24.801Z,96475.28
2022-11-22T13:20:03.265Z,96466.22
2022-11-22T13:23:19.454Z,96467.56
2022-11-22T13:26:18.622Z,96470.59
2022-11-22T13:28:46.698Z,96476.13
2022-11-22T13:31:18.724Z,96465.91
2022-11-22T13:34:01.302Z,96470.19
2022-11-22T13:36:27.717Z,96468.41
2022-11-22T13:39:10.279Z,96473.09
2022-11-22T13:41:41.751Z,96472.84
2022-11-22T13:44:23.442Z,96465.78
2022-11-22T13:46:49.838Z,96467.59
2022-11-22T13:49:45.089Z,96465.22
2022-11-22T13:52:14.865Z,96467.88
2022-11-22T13:54:47.302Z,96464.97
2022-11-22T13:57:39.903Z,96462.88
2022-11-22T14:00:12.651Z,96455.31
2022-11-22T14:02:53.229Z,96451.31
2022-11-22T14:05:38.034Z,96454.59
2022-11-22T14:08:31.070Z,96451.47
2022-11-22T14:11:17.707Z,96460.28
2022-11-22T14:14:12.591Z,96458.19
2022-11-22T14:16:57.940Z,96452.38
2022-11-22T14:19:33.415Z,96457.34
2022-11-22T14:22:18.886Z,96456.97
2022-11-22T14:24:53.310Z,96454.34
2022-11-22T14:27:46.940Z,96449.25
2022-11-22T14:30:22.460Z,96453.50
2022-11-22T14:33:15.432Z,96451.56
2022-11-22T14:36:06.608Z,96452.38
2022-11-22T14:38:38.707Z,96449.06
2022-11-22T14:41:42.054Z,96452.94
2022-11-22T14:44:17.131Z,96460.94
2022-11-22T14:46:57.836Z,96458.72
2022-11-22T14:49:46.289Z,96462.19
2022-11-22T14:52:32.884Z,96463.16
2022-11-22T14:55:06.011Z,96454.72
2022-11-22T14:57:36.591Z,96461.50
2022-11-22T15:00:20.677Z,96450.47
2022-11-22T15:09:11.675Z,96451.00
2022-11-22T15:09:21.284Z,96453.63
2022-11-22T15:11:03.139Z,96446.59
2022-11-22T15:14:16.068Z,96445.09
2022-11-22T15:59:46.773Z,96499.16
2022-11-22T16:02:19.947Z,96498.06
2022-11-22T16:06:06.185Z,96496.25
2022-11-22T16:07:48.452Z,96495.69
2022-11-22T16:10:23.949Z,96498.03
2022-11-22T16:12:52.487Z,96497.34
2022-11-22T16:15:38.356Z,96507.53
2022-11-22T16:18:26.172Z,96505.34
2022-11-22T16:21:22.145Z,96507.53
2022-11-22T16:24:12.393Z,96512.50
2022-11-22T16:26:39.858Z,96510.00
2022-11-22T16:29:31.923Z,96513.59
2022-11-22T16:32:06.508Z,96510.44
2022-11-22T16:34:33.047Z,96518.03
2022-11-22T16:36:59.560Z,96511.94
2022-11-22T16:39:26.101Z,96507.97
2022-11-22T16:41:52.655Z,96510.56
2022-11-22T16:44:21.413Z,96523.53
2022-11-22T16:46:47.916Z,96520.91
2022-11-22T16:49:22.656Z,96512.75
2022-11-22T16:51:51.018Z,96514.38
2022-11-22T16:54:20.628Z,96530.41
2022-11-22T16:56:47.420Z,96528.63
2022-11-22T16:59:13.967Z,96527.66
2022-11-22T17:01:43.317Z,96532.06
2022-11-22T17:04:40.813Z,96536.72
2022-11-22T17:07:12.917Z,96544.22
2022-11-22T17:09:39.571Z,96541.59
2022-11-22T17:12:21.081Z,96543.97
2022-11-22T17:14:48.486Z,96546.44
2022-11-22T17:17:15.151Z,96544.47
2022-11-22T17:19:57.007Z,96550.84
2022-11-22T17:22:23.571Z,96554.53
2022-11-22T17:24:50.042Z,96553.84
2022-11-22T17:27:16.628Z,96550.63
2022-11-22T17:29:50.406Z,96550.22
2022-11-22T17:32:17.360Z,96553.53
2022-11-22T17:34:43.838Z,96557.41
2022-11-22T17:37:12.424Z,96554.88
2022-11-22T17:39:39.723Z,96553.75
2022-11-22T17:42:06.648Z,96560.94
2022-11-22T17:44:33.213Z,96564.69
2022-11-22T17:46:59.701Z,96574.34
2022-11-22T17:49:26.380Z,96569.78
2022-11-22T17:51:52.859Z,96565.38
2022-11-22T17:54:19.476Z,96567.44
2022-11-22T17:56:46.074Z,96581.91
2022-11-22T17:59:12.517Z,96584.03
2022-11-22T18:01:39.069Z,96596.59
2022-11-22T18:04:05.497Z,96599.91
2022-11-22T18:06:32.142Z,96596.03
2022-11-22T18:08:58.768Z,96599.47
2022-11-22T18:11:26.013Z,96606.50
2022-11-22T18:13:52.724Z,96611.44
2022-11-22T18:16:19.183Z,96603.19
2022-11-22T18:19:01.787Z,96609.97
2022-11-22T18:21:30.711Z,96613.91
2022-11-22T18:23:58.797Z,96612.03
2022-11-22T18:26:42.177Z,96615.63
2022-11-22T18:31:57.556Z,96619.56
2022-11-22T18:34:25.610Z,96605.94
2022-11-22T18:36:55.705Z,96615.59
2022-11-22T18:39:24.576Z,96605.50
2022-11-22T18:41:51.378Z,96615.31
2022-11-22T18:44:18.283Z,96619.81
2022-11-22T18:46:44.844Z,96619.97
2022-11-22T18:49:11.301Z,96614.22
2022-11-22T18:51:37.819Z,96613.09
2022-11-22T18:54:04.448Z,96618.34
2022-11-22T18:56:30.934Z,96620.78
2022-11-22T18:58:57.422Z,96626.72
2022-11-22T19:01:24.441Z,96630.75
2022-11-22T19:03:50.977Z,96628.78
2022-11-22T19:06:19.702Z,96637.31
2022-11-22T19:08:47.125Z,96631.44
2022-11-22T19:11:14.265Z,96635.19
2022-11-22T19:13:42.576Z,96634.66
2022-11-22T19:16:16.368Z,96634.53
2022-11-22T19:18:44.581Z,96632.47
2022-11-22T19:21:21.086Z,96631.25
2022-11-22T19:23:49.620Z,96627.72
2022-11-22T19:26:23.507Z,96628.81
2022-11-22T19:28:56.014Z,96624.41
2022-11-22T19:31:27.571Z,96628.03
2022-11-22T19:33:54.385Z,96629.38
2022-11-22T19:36:27.893Z,96635.44
2022-11-22T19:38:59.677Z,96637.13
2022-11-22T19:41:26.392Z,96633.53
2022-11-22T19:43:53.026Z,96635.59
2022-11-22T19:46:20.030Z,96630.53
2022-11-22T19:48:55.274Z,96629.13
2022-11-22T19:51:24.051Z,96631.75
2022-11-22T19:53:55.286Z,96630.19
2022-11-22T19:56:21.807Z,96639.59
2022-11-22T19:58:54.239Z,96646.19
2022-11-22T20:01:23.227Z,96635.50
2022-11-22T20:04:01.474Z,96645.66
2022-11-22T20:06:28.440Z,96642.06
2022-11-22T20:09:03.000Z,96646.47
2022-11-22T20:11:29.742Z,96648.03
2022-11-22T20:13:56.705Z,96648.44
2022-11-22T20:16:29.595Z,96645.56
2022-11-22T20:18:59.877Z,96642.25
2022-11-22T20:21:29.203Z,96649.28
2022-11-22T20:23:56.584Z,96658.09
2022-11-22T20:26:25.315Z,96647.88
2022-11-22T20:29:00.998Z,96649.81
2022-11-22T20:31:31.103Z,96659.63
2022-11-22T20:33:59.519Z,96660.72
2022-11-22T20:36:29.738Z,96662.19
2022-11-22T20:38:57.268Z,96661.13
2022-11-22T20:41:28.310Z,96659.00
2022-11-22T20:43:55.439Z,96662.78
2022-11-22T20:46:25.717Z,96667.44
2022-11-22T20:48:53.301Z,96673.00
2022-11-22T20:51:26.681Z,96669.88
2022-11-22T20:53:54.188Z,96674.22
2022-11-22T20:56:21.517Z,96685.69
2022-11-22T20:58:48.527Z,96680.97
2022-11-22T21:01:25.055Z,96679.72
2022-11-22T21:03:54.393Z,96687.44
2022-11-22T21:06:25.057Z,96683.47
2022-11-22T21:08:51.790Z,96686.91
2022-11-22T21:11:22.194Z,96684.16
2022-11-22T21:13:49.515Z,96687.06
2022-11-22T21:16:24.451Z,96690.38
2022-11-22T21:19:06.361Z,96691.91
2022-11-22T21:21:35.737Z,96697.25
2022-11-22T21:24:04.861Z,96692.00
2022-11-22T21:26:31.980Z,96696.50
2022-11-22T21:29:00.050Z,96691.69
2022-11-22T21:31:27.931Z,96702.16
2022-11-22T21:33:54.464Z,96697.44
2022-11-22T21:36:22.284Z,96693.69
2022-11-22T21:38:49.144Z,96690.78
2022-11-22T21:44:05.716Z,96696.44
2022-11-22T21:46:32.135Z,96705.13
2022-11-22T21:48:58.611Z,96700.34
2022-11-22T21:51:26.181Z,96704.34
2022-11-22T21:54:00.409Z,96703.38
2022-11-22T21:56:28.118Z,96691.25
2022-11-22T21:58:55.025Z,96692.66
2022-11-22T22:01:22.488Z,96698.19
2022-11-22T22:03:49.158Z,96694.47
2022-11-22T22:06:15.684Z,96697.66
2022-11-22T22:08:42.169Z,96701.63
2022-11-22T22:11:08.648Z,96692.25
2022-11-22T22:13:35.947Z,96693.91
2022-11-22T22:16:06.574Z,96698.06
2022-11-22T22:18:36.679Z,96697.47
2022-11-22T22:21:07.355Z,96697.88
2022-11-22T22:23:36.058Z,96706.97
2022-11-22T22:26:07.063Z,96703.13
2022-11-22T22:28:36.629Z,96700.03
2022-11-22T22:31:11.940Z,96696.75
2022-11-22T22:33:41.304Z,96701.59
2022-11-22T22:36:10.032Z,96696.88
2022-11-22T22:38:37.053Z,96699.63
2022-11-22T22:41:05.629Z,96702.50
2022-11-22T22:43:35.893Z,96702.25
2022-11-22T22:46:10.169Z,96709.66
2022-11-22T22:48:36.809Z,96706.50
2022-11-22T22:51:27.507Z,96707.84
2022-11-22T22:53:57.761Z,96711.31
2022-11-22T22:56:25.135Z,96706.09
2022-11-22T22:58:56.451Z,96703.59
2022-11-22T23:01:26.241Z,96710.81
2022-11-22T23:03:59.133Z,96705.28
2022-11-22T23:06:29.186Z,96706.72
2022-11-22T23:08:56.937Z,96711.06
2022-11-22T23:11:45.981Z,96721.56
2022-11-22T23:14:15.192Z,96725.13
2022-11-22T23:16:41.911Z,96719.34
2022-11-22T23:19:09.347Z,96719.53
2022-11-22T23:21:36.336Z,96724.66
2022-11-22T23:24:04.209Z,96720.25
2022-11-22T23:26:30.925Z,96724.19
2022-11-22T23:28:58.749Z,96720.66
2022-11-22T23:31:25.421Z,96720.09
2022-11-22T23:33:51.849Z,96724.41
2022-11-22T23:36:20.861Z,96723.28
2022-11-22T23:38:47.740Z,96726.06
2022-11-22T23:41:20.937Z,96720.56
2022-11-22T23:43:52.427Z,96722.22
2022-11-22T23:46:18.944Z,96722.06
2022-11-22T23:48:47.855Z,96724.03
2022-11-22T23:51:15.585Z,96730.75
2022-11-22T23:53:42.117Z,96738.75
2022-11-22T23:56:12.540Z,96728.78
2022-11-22T23:58:39.985Z,96725.75
